Time;durP1;ratioP1;P1;durP2;ratioP2;P2;SDS_P1;SDS_P2;PMS_P1;PMS_P2;Temp;Humidity;BMP_temperature;BMP_pressure;BME280_temperature;BME280_humidity;BME280_pressure;Samples;Min_cycle;Max_cycle;Signal;HPM_P1;HPM_P2
2021/08/05 00:00:25;;;;;;;;;;;;;;;22.66;43.02;100889.53;4957681;28;98825;-84
2021/08/05 00:02:51;;;;;;;;;;;;;;;22.91;42.99;100882.97;4959112;28;97669;-83
2021/08/05 00:05:18;;;;;;;;;;;;;;;23.14;42.33;100886.41;4958181;28;99090;-84
2021/08/05 00:07:44;;;;;;;;;;;;;;;23.09;42.18;100886.81;4958552;28;97561;-83
2021/08/05 00:10:11;;;;;;;;;;;;;;;22.99;42.30;100885.88;4957055;28;97170;-84
2021/08/05 00:12:37;;;;;;;;;;;;;;;22.56;43.09;100880.53;4959372;28;97555;-83
2021/08/05 00:15:04;;;;;;;;;;;;;;;22.14;43.97;100879.53;4960888;28;98943;-85
2021/08/05 00:17:31;;;;;;;;;;;;;;;22.58;43.25;100881.22;4959428;28;101493;-82
2021/08/05 00:19:58;;;;;;;;;;;;;;;22.64;42.90;100878.06;4960030;28;96669;-84
2021/08/05 00:22:24;;;;;;;;;;;;;;;22.52;43.40;100882.59;4958439;28;96885;-83
2021/08/05 00:24:50;;;;;;;;;;;;;;;21.93;44.52;100886.59;4961480;28;100046;-84
2021/08/05 00:27:17;;;;;;;;;;;;;;;22.06;44.20;100885.53;4959952;28;98083;-82
2021/08/05 00:29:43;;;;;;;;;;;;;;;22.10;44.28;100883.44;4960588;28;97013;-83
2021/08/05 00:32:09;;;;;;;;;;;;;;;22.28;44.02;100884.63;4959813;28;96782;-82
2021/08/05 00:34:37;;;;;;;;;;;;;;;22.48;43.78;100881.16;4956454;28;98206;-81
2021/08/05 00:37:04;;;;;;;;;;;;;;;22.37;43.53;100883.03;4957342;28;98157;-83
2021/08/05 00:39:30;;;;;;;;;;;;;;;22.20;43.98;100877.19;4957140;28;97004;-83
2021/08/05 00:41:56;;;;;;;;;;;;;;;22.18;44.08;100889.94;4958339;28;96810;-82
2021/08/05 00:44:22;;;;;;;;;;;;;;;21.84;45.12;100883.69;4957608;28;99862;-83
2021/08/05 00:46:49;;;;;;;;;;;;;;;21.97;44.90;100886.28;4955062;28;99170;-82
2021/08/05 00:49:15;;;;;;;;;;;;;;;21.94;44.90;100877.56;4954480;28;96899;-83
2021/08/05 00:51:43;;;;;;;;;;;;;;;21.66;45.53;100878.94;4957352;28;96864;-82
2021/08/05 00:54:09;;;;;;;;;;;;;;;21.92;44.97;100876.84;4955799;28;98492;-81
2021/08/05 00:56:36;;;;;;;;;;;;;;;22.01;44.80;100876.13;4957943;28;98674;-82
2021/08/05 00:59:02;;;;;;;;;;;;;;;21.92;45.03;100876.84;4957433;28;96757;-83
2021/08/05 01:01:32;;;;;;;;;;;;;;;21.96;44.51;100873.81;4959250;28;97043;-83
2021/08/05 01:03:59;;;;;;;;;;;;;;;21.84;45.18;100870.25;4956285;28;99464;-83
2021/08/05 01:06:32;;;;;;;;;;;;;;;21.81;45.09;100873.16;4958633;28;98277;-84
2021/08/05 01:09:02;;;;;;;;;;;;;;;21.78;45.76;100870.75;4957623;28;97011;-84
2021/08/05 01:11:30;;;;;;;;;;;;;;;21.74;45.53;100863.88;4955448;28;96654;-83
2021/08/05 01:13:57;;;;;;;;;;;;;;;21.67;46.03;100862.66;4956312;28;98902;-83
2021/08/05 01:16:26;;;;;;;;;;;;;;;21.75;45.74;100854.84;4958850;28;99077;-83
2021/08/05 01:18:54;;;;;;;;;;;;;;;21.78;45.51;100851.06;4955488;28;97286;-83
2021/08/05 01:21:24;;;;;;;;;;;;;;;21.77;45.37;100844.81;4959510;28;96622;-83
2021/08/05 01:23:54;;;;;;;;;;;;;;;21.55;46.04;100846.66;4957017;28;98002;-83
2021/08/05 01:26:29;;;;;;;;;;;;;;;21.41;46.66;100845.06;4958690;28;99787;-82
2021/08/05 01:28:57;;;;;;;;;;;;;;;21.14;47.04;100839.97;4964204;28;96742;-83
2021/08/05 01:31:25;;;;;;;;;;;;;;;21.13;47.48;100840.13;4970212;28;98104;-83
2021/08/05 01:33:52;;;;;;;;;;;;;;;21.29;46.75;100840.66;4968269;28;99019;-83
2021/08/05 01:36:19;;;;;;;;;;;;;;;21.48;46.08;100838.22;4953928;28;98821;-82
2021/08/05 01:38:46;;;;;;;;;;;;;;;21.26;46.92;100835.53;4964396;28;96617;-81
2021/08/05 01:41:13;;;;;;;;;;;;;;;21.62;45.90;100837.97;4961617;28;97771;-82
2021/08/05 01:43:40;;;;;;;;;;;;;;;21.41;46.05;100837.00;4959998;28;97891;-82
2021/08/05 01:46:08;;;;;;;;;;;;;;;21.47;46.13;100840.03;4960886;28;98159;-82
2021/08/05 01:48:35;;;;;;;;;;;;;;;21.66;45.62;100842.13;4960079;28;96726;-82
2021/08/05 01:51:01;;;;;;;;;;;;;;;21.83;45.29;100836.25;4961862;28;96919;-83
2021/08/05 01:53:28;;;;;;;;;;;;;;;21.56;45.76;100838.47;4959156;28;98524;-83
2021/08/05 01:55:54;;;;;;;;;;;;;;;21.58;46.18;100841.03;4960803;28;100861;-83
2021/08/05 01:58:20;;;;;;;;;;;;;;;21.91;45.11;100837.47;4961517;28;98101;-82
2021/08/05 02:00:47;;;;;;;;;;;;;;;21.64;45.59;100840.53;4962236;28;97890;-83
2021/08/05 02:03:15;;;;;;;;;;;;;;;21.58;45.83;100847.28;4974161;28;99159;-82
2021/08/05 02:05:44;;;;;;;;;;;;;;;21.74;45.43;100828.91;4975829;28;97370;-83
2021/08/05 02:08:13;;;;;;;;;;;;;;;21.40;46.50;100837.97;4975527;28;96797;-84
2021/08/05 02:10:41;;;;;;;;;;;;;;;21.15;47.34;100832.78;4973518;28;96794;-84
2021/08/05 02:13:11;;;;;;;;;;;;;;;21.60;46.21;100834.53;4972740;28;98861;-84
2021/08/05 02:15:38;;;;;;;;;;;;;;;21.75;45.71;100827.09;4974385;28;97725;-85
2021/08/05 02:18:06;;;;;;;;;;;;;;;21.61;46.40;100830.03;4958921;28;98857;-83
2021/08/05 02:20:33;;;;;;;;;;;;;;;21.79;45.81;100829.38;4957033;28;96923;-82
2021/08/05 02:23:00;;;;;;;;;;;;;;;21.41;46.64;100818.16;4957161;28;97930;-83
2021/08/05 02:25:27;;;;;;;;;;;;;;;21.46;46.77;100824.06;4958145;28;98049;-83
2021/08/05 02:27:54;;;;;;;;;;;;;;;21.33;46.88;100823.31;4957885;28;97631;-83
2021/08/05 02:30:20;;;;;;;;;;;;;;;21.21;47.21;100833.19;4957912;28;96843;-83
2021/08/05 02:32:47;;;;;;;;;;;;;;;21.35;47.39;100818.66;4951816;28;101434;-83
2021/08/05 02:35:14;;;;;;;;;;;;;;;20.94;48.02;100830.78;4948061;28;98740;-82
2021/08/05 02:37:42;;;;;;;;;;;;;;;21.23;47.48;100822.31;4962607;28;96743;-82
2021/08/05 02:40:10;;;;;;;;;;;;;;;21.18;47.40;100824.53;4963893;28;96845;-82
2021/08/05 02:42:38;;;;;;;;;;;;;;;21.36;47.11;100825.75;4961098;28;101196;-82
2021/08/05 02:45:05;;;;;;;;;;;;;;;21.17;47.39;100814.75;4959397;28;98755;-82
2021/08/05 02:47:32;;;;;;;;;;;;;;;21.48;46.86;100819.41;4960407;28;96765;-82
2021/08/05 02:50:00;;;;;;;;;;;;;;;21.46;46.88;100821.38;4964065;28;97012;-83
2021/08/05 02:52:26;;;;;;;;;;;;;;;21.32;47.15;100826.97;4970879;28;98953;-83
2021/08/05 02:54:54;;;;;;;;;;;;;;;21.24;47.27;100815.97;4975267;28;97783;-83
2021/08/05 02:57:21;;;;;;;;;;;;;;;21.01;47.94;100818.59;4978727;28;96263;-83
2021/08/05 02:59:48;;;;;;;;;;;;;;;21.22;47.94;100818.78;4971818;28;96638;-83
2021/08/05 03:02:15;;;;;;;;;;;;;;;21.34;47.27;100820.50;4967543;28;97762;-82
2021/08/05 03:04:41;;;;;;;;;;;;;;;21.09;47.81;100823.38;4969124;28;97710;-83
2021/08/05 03:07:09;;;;;;;;;;;;;;;21.52;46.76;100820.88;4966456;28;96857;-84
2021/08/05 03:09:35;;;;;;;;;;;;;;;21.54;46.94;100818.91;4964102;28;96810;-82
2021/08/05 03:12:03;;;;;;;;;;;;;;;21.47;46.99;100823.91;4964608;28;102032;-82
2021/08/05 03:14:31;;;;;;;;;;;;;;;20.97;48.22;100822.50;4962866;28;98102;-81
2021/08/05 03:16:57;;;;;;;;;;;;;;;20.78;48.91;100818.66;4959478;28;96623;-81
2021/08/05 03:19:23;;;;;;;;;;;;;;;20.69;49.09;100814.84;4957416;28;96908;-82
2021/08/05 03:21:50;;;;;;;;;;;;;;;20.84;48.55;100818.19;4957015;28;99232;-82
2021/08/05 03:24:16;;;;;;;;;;;;;;;20.71;49.04;100812.03;4958730;28;99184;-82
2021/08/05 03:26:42;;;;;;;;;;;;;;;20.71;49.03;100820.09;4956837;28;96957;-82
2021/08/05 03:29:10;;;;;;;;;;;;;;;20.79;48.49;100821.22;4956294;28;96860;-82
2021/08/05 03:31:36;;;;;;;;;;;;;;;20.83;48.57;100817.31;4956978;28;99258;-82
2021/08/05 03:34:02;;;;;;;;;;;;;;;20.97;48.48;100816.25;4955839;28;97680;-81
2021/08/05 03:36:28;;;;;;;;;;;;;;;21.04;47.80;100818.34;4954761;28;97238;-82
2021/08/05 03:38:55;;;;;;;;;;;;;;;21.38;47.22;100819.28;4957781;28;97014;-80
2021/08/05 03:41:21;;;;;;;;;;;;;;;21.06;48.12;100810.19;4956572;28;98209;-82
2021/08/05 03:43:47;;;;;;;;;;;;;;;21.33;47.55;100815.25;4957234;28;97441;-83
2021/08/05 03:46:15;;;;;;;;;;;;;;;21.40;47.34;100803.88;4957349;28;96800;-82
2021/08/05 03:48:41;;;;;;;;;;;;;;;21.30;47.39;100810.13;4957672;28;96824;-82
2021/08/05 03:51:08;;;;;;;;;;;;;;;21.37;47.65;100811.34;4956104;28;97932;-83
2021/08/05 03:53:34;;;;;;;;;;;;;;;21.06;47.86;100805.66;4956553;28;98058;-84
2021/08/05 03:56:00;;;;;;;;;;;;;;;21.33;47.30;100807.19;4956189;28;96964;-84
2021/08/05 03:58:27;;;;;;;;;;;;;;;21.43;47.01;100800.94;4955270;28;97511;-83
2021/08/05 04:00:53;;;;;;;;;;;;;;;21.14;47.61;100802.34;4956416;28;98624;-83
2021/08/05 04:03:21;;;;;;;;;;;;;;;21.16;47.76;100803.13;4955820;28;98097;-82
2021/08/05 04:05:47;;;;;;;;;;;;;;;21.22;47.64;100805.34;4954230;28;96916;-82
2021/08/05 04:08:14;;;;;;;;;;;;;;;20.88;48.35;100809.75;4955604;28;98636;-83
2021/08/05 04:10:40;;;;;;;;;;;;;;;20.93;48.39;100807.59;4953609;28;99157;-83
2021/08/05 04:13:06;;;;;;;;;;;;;;;20.80;48.59;100800.59;4956143;28;98017;-83
2021/08/05 04:15:33;;;;;;;;;;;;;;;20.76;48.55;100810.72;4957297;28;97208;-85
2021/08/05 04:17:59;;;;;;;;;;;;;;;21.03;48.12;100811.28;4956963;28;97224;-84
2021/08/05 04:20:27;;;;;;;;;;;;;;;21.01;48.06;100805.16;4957616;28;99267;-83
2021/08/05 04:22:53;;;;;;;;;;;;;;;20.97;48.15;100813.56;4958307;28;98917;-84
2021/08/05 04:25:19;;;;;;;;;;;;;;;20.88;48.63;100807.06;4956786;28;96726;-83
2021/08/05 04:27:46;;;;;;;;;;;;;;;21.13;47.60;100797.13;4962900;28;96846;-83
2021/08/05 04:30:13;;;;;;;;;;;;;;;20.93;48.13;100809.44;4969604;28;98852;-83
2021/08/05 04:32:40;;;;;;;;;;;;;;;21.15;47.98;100801.38;4967297;28;99057;-84
2021/08/05 04:35:07;;;;;;;;;;;;;;;21.06;47.92;100808.34;4960825;28;97744;-83
2021/08/05 04:37:35;;;;;;;;;;;;;;;21.38;47.22;100800.47;4959788;28;96954;-85
2021/08/05 04:40:02;;;;;;;;;;;;;;;21.45;46.65;100799.00;4958862;28;99673;-84
2021/08/05 04:42:28;;;;;;;;;;;;;;;21.62;46.47;100797.63;4960433;28;97924;-83
2021/08/05 04:44:55;;;;;;;;;;;;;;;21.93;45.82;100789.75;4957442;28;98478;-84
2021/08/05 04:47:21;;;;;;;;;;;;;;;21.82;45.81;100790.66;4957805;28;96840;-83
2021/08/05 04:49:47;;;;;;;;;;;;;;;21.54;46.46;100794.69;4956442;28;97623;-84
2021/08/05 04:52:13;;;;;;;;;;;;;;;21.98;45.10;100788.47;4957575;28;99059;-83
2021/08/05 04:54:41;;;;;;;;;;;;;;;21.55;46.29;100782.13;4956064;28;97106;-83
2021/08/05 04:57:07;;;;;;;;;;;;;;;21.62;46.01;100783.34;4956549;28;96861;-84
2021/08/05 04:59:33;;;;;;;;;;;;;;;22.15;45.16;100782.53;4955615;28;98898;-84
2021/08/05 05:02:00;;;;;;;;;;;;;;;22.50;43.98;100786.78;4955955;28;101430;-83
2021/08/05 05:04:26;;;;;;;;;;;;;;;22.51;44.01;100783.13;4956156;28;96766;-84
2021/08/05 05:06:52;;;;;;;;;;;;;;;22.19;44.60;100796.56;4956363;28;97007;-82
2021/08/05 05:09:18;;;;;;;;;;;;;;;22.40;44.36;100780.47;4956115;28;98971;-82
2021/08/05 05:11:46;;;;;;;;;;;;;;;22.12;44.98;100785.44;4959560;28;97817;-82
2021/08/05 05:14:13;;;;;;;;;;;;;;;21.93;45.37;100779.84;4958743;28;96756;-83
2021/08/05 05:16:39;;;;;;;;;;;;;;;22.56;44.52;100783.59;4959972;28;96966;-83
2021/08/05 05:19:05;;;;;;;;;;;;;;;22.42;44.50;100787.44;4963104;28;98149;-80
2021/08/05 05:21:31;;;;;;;;;;;;;;;22.70;44.18;100785.09;4960871;28;98833;-79
2021/08/05 05:23:58;;;;;;;;;;;;;;;22.73;43.89;100784.84;4963199;28;97184;-82
2021/08/05 05:26:24;;;;;;;;;;;;;;;22.84;43.69;100772.16;4960824;28;96871;-82
2021/08/05 05:28:52;;;;;;;;;;;;;;;22.20;45.00;100782.97;4957834;28;99161;-81
2021/08/05 05:31:18;;;;;;;;;;;;;;;22.64;44.32;100776.53;4961588;28;97721;-82
2021/08/05 05:33:45;;;;;;;;;;;;;;;22.71;44.12;100773.34;4967255;28;98455;-83
2021/08/05 05:36:11;;;;;;;;;;;;;;;22.80;43.91;100772.56;4963712;28;96840;-84
2021/08/05 05:38:38;;;;;;;;;;;;;;;22.89;43.96;100774.47;4961724;28;97810;-82
2021/08/05 05:41:04;;;;;;;;;;;;;;;22.72;44.04;100773.19;4961279;28;99230;-83
2021/08/05 05:43:30;;;;;;;;;;;;;;;22.21;45.30;100768.56;4965601;28;96854;-83
2021/08/05 05:45:58;;;;;;;;;;;;;;;22.25;45.47;100777.25;4965167;28;97440;-81
2021/08/05 05:48:24;;;;;;;;;;;;;;;22.05;45.95;100775.34;4964135;28;99292;-81
2021/08/05 05:50:51;;;;;;;;;;;;;;;22.79;44.55;100781.63;4963924;28;100355;-84
2021/08/05 05:53:17;;;;;;;;;;;;;;;22.89;44.35;100778.03;4963845;28;96854;-85
2021/08/05 05:55:44;;;;;;;;;;;;;;;23.00;44.19;100777.09;4963169;28;97565;-81
2021/08/05 05:58:10;;;;;;;;;;;;;;;22.87;44.79;100773.75;4958445;28;98166;-81
2021/08/05 06:00:36;;;;;;;;;;;;;;;23.00;44.43;100772.56;4957883;28;99777;-83
2021/08/05 06:03:05;;;;;;;;;;;;;;;23.02;44.05;100769.75;4971008;28;97594;-82
2021/08/05 06:05:32;;;;;;;;;;;;;;;23.39;43.23;100764.66;4966688;28;96808;-84
2021/08/05 06:07:58;;;;;;;;;;;;;;;23.22;43.76;100773.38;4962301;28;98926;-82
2021/08/05 06:10:25;;;;;;;;;;;;;;;23.29;43.65;100771.88;4964230;28;98262;-82
2021/08/05 06:12:52;;;;;;;;;;;;;;;23.32;43.59;100764.34;4971459;28;97364;-84
2021/08/05 06:15:18;;;;;;;;;;;;;;;23.90;42.35;100763.69;4972547;28;96584;-83
2021/08/05 06:17:45;;;;;;;;;;;;;;;23.64;43.15;100764.19;4964968;28;97622;-84
2021/08/05 06:20:15;;;;;;;;;;;;;;;23.80;42.86;100771.78;4960437;28;98003;-85
2021/08/05 06:22:42;;;;;;;;;;;;;;;24.18;41.79;100763.72;4957446;28;97636;-83
2021/08/05 06:25:09;;;;;;;;;;;;;;;23.91;42.78;100770.78;4958945;28;97113;-85
2021/08/05 06:27:36;;;;;;;;;;;;;;;24.33;41.72;100763.34;4959775;28;100934;-83
2021/08/05 06:30:02;;;;;;;;;;;;;;;23.97;42.93;100760.28;4955333;28;98832;-82
2021/08/05 06:32:29;;;;;;;;;;;;;;;24.02;42.50;100763.44;4963319;28;96773;-84
2021/08/05 06:34:55;;;;;;;;;;;;;;;24.06;42.80;100764.00;4971412;28;96818;-83
2021/08/05 06:37:23;;;;;;;;;;;;;;;24.49;42.00;100766.31;4963109;28;99321;-84
2021/08/05 06:39:49;;;;;;;;;;;;;;;24.43;41.97;100767.75;4958088;28;97749;-84
2021/08/05 06:42:16;;;;;;;;;;;;;;;24.96;41.16;100767.28;4959453;28;97089;-82
2021/08/05 06:44:42;;;;;;;;;;;;;;;24.72;41.41;100762.31;4956310;28;97027;-83
2021/08/05 06:47:11;;;;;;;;;;;;;;;25.11;40.76;100773.06;4957859;28;98981;-84
2021/08/05 06:49:39;;;;;;;;;;;;;;;26.02;39.33;100766.78;4957313;28;101569;-84
2021/08/05 06:52:06;;;;;;;;;;;;;;;26.49;37.83;100771.03;4957191;28;97757;-85
2021/08/05 06:54:34;;;;;;;;;;;;;;;25.98;38.72;100766.28;4958839;28;97497;-85
2021/08/05 06:57:01;;;;;;;;;;;;;;;26.14;39.22;100770.97;4960105;28;98256;-83
2021/08/05 06:59:29;;;;;;;;;;;;;;;26.43;38.45;100768.94;4961971;28;97836;-84
2021/08/05 07:01:55;;;;;;;;;;;;;;;26.38;38.58;100771.28;4962301;28;96675;-83
2021/08/05 07:04:23;;;;;;;;;;;;;;;25.74;39.95;100768.69;4958307;28;97291;-83
2021/08/05 07:06:49;;;;;;;;;;;;;;;25.95;39.59;100776.53;4953061;28;99476;-83
2021/08/05 07:09:16;;;;;;;;;;;;;;;26.24;39.00;100771.81;4959859;28;101136;-82
2021/08/05 07:11:44;;;;;;;;;;;;;;;26.24;38.92;100769.09;4961503;28;96911;-83
2021/08/05 07:14:10;;;;;;;;;;;;;;;26.40;39.10;100768.38;4958347;28;96899;-80
2021/08/05 07:16:37;;;;;;;;;;;;;;;26.63;38.40;100771.47;4954554;28;98220;-84
2021/08/05 07:19:03;;;;;;;;;;;;;;;26.88;37.95;100773.34;4955699;28;98840;-81
2021/08/05 07:21:30;;;;;;;;;;;;;;;26.41;38.87;100779.06;4957233;28;96929;-81
2021/08/05 07:23:57;;;;;;;;;;;;;;;26.48;38.51;100772.03;4956674;28;97383;-82
2021/08/05 07:26:23;;;;;;;;;;;;;;;26.45;38.94;100763.38;4951922;28;99164;-79
2021/08/05 07:28:50;;;;;;;;;;;;;;;26.85;37.61;100774.50;4953469;28;100515;-78
2021/08/05 07:31:17;;;;;;;;;;;;;;;26.83;38.00;100765.72;4954837;28;97032;-81
2021/08/05 07:33:48;;;;;;;;;;;;;;;26.71;38.08;100766.13;4955762;28;96853;-81
2021/08/05 07:36:15;;;;;;;;;;;;;;;26.65;38.15;100764.03;4956692;28;101231;-78
2021/08/05 07:38:42;;;;;;;;;;;;;;;27.00;37.56;100763.97;4962023;28;97674;-76
2021/08/05 07:41:08;;;;;;;;;;;;;;;26.05;39.68;100772.78;4952085;28;97124;-80
2021/08/05 07:43:35;;;;;;;;;;;;;;;26.58;38.56;100761.94;4954447;28;97271;-78
2021/08/05 07:46:03;;;;;;;;;;;;;;;26.72;38.29;100756.94;4958350;28;100054;-80
2021/08/05 07:48:29;;;;;;;;;;;;;;;26.07;39.50;100759.91;4954833;28;98033;-80
2021/08/05 07:50:55;;;;;;;;;;;;;;;26.27;39.49;100755.22;4957438;28;96980;-80
2021/08/05 07:53:22;;;;;;;;;;;;;;;26.16;39.60;100753.59;4955528;28;97280;-78
2021/08/05 07:55:50;;;;;;;;;;;;;;;26.74;38.45;100752.25;4953576;28;98969;-79
2021/08/05 07:58:16;;;;;;;;;;;;;;;27.29;37.46;100756.34;4956421;28;98803;-79
2021/08/05 08:00:43;;;;;;;;;;;;;;;27.44;37.10;100750.31;4953353;28;97179;-79
2021/08/05 08:03:11;;;;;;;;;;;;;;;27.10;37.73;100759.31;4944355;28;101633;-79
2021/08/05 08:05:39;;;;;;;;;;;;;;;27.21;37.54;100753.59;4956400;28;99023;-78
2021/08/05 08:08:06;;;;;;;;;;;;;;;27.61;36.67;100754.81;4955451;28;98843;-77
2021/08/05 08:10:32;;;;;;;;;;;;;;;27.59;36.88;100756.84;4960057;28;97406;-78
2021/08/05 08:12:59;;;;;;;;;;;;;;;27.37;37.57;100753.66;4958364;28;97082;-79
2021/08/05 08:15:26;;;;;;;;;;;;;;;27.01;38.12;100753.97;4952392;28;98278;-78
2021/08/05 08:17:53;;;;;;;;;;;;;;;27.13;37.99;100764.38;4950770;28;101227;-79
2021/08/05 08:20:22;;;;;;;;;;;;;;;27.11;38.15;100752.03;4956381;28;97725;-81
2021/08/05 08:22:52;;;;;;;;;;;;;;;27.19;37.98;100752.91;4951969;28;97183;-81
2021/08/05 08:25:18;;;;;;;;;;;;;;;26.57;39.25;100757.56;4960600;28;98394;-81
2021/08/05 08:27:45;;;;;;;;;;;;;;;26.68;38.57;100750.16;4954777;28;99558;-78
2021/08/05 08:30:13;;;;;;;;;;;;;;;26.78;38.50;100754.47;4953403;28;97374;-78
2021/08/05 08:32:39;;;;;;;;;;;;;;;26.75;38.81;100748.53;4955202;28;98691;-76
2021/08/05 08:35:06;;;;;;;;;;;;;;;26.73;39.06;100750.53;4953810;28;98866;-77
2021/08/05 08:37:36;;;;;;;;;;;;;;;26.40;39.43;100744.00;4956876;28;98022;-76
2021/08/05 08:40:02;;;;;;;;;;;;;;;27.40;37.43;100747.06;4955015;28;97084;-77
2021/08/05 08:42:29;;;;;;;;;;;;;;;27.17;37.74;100741.38;4954982;28;96827;-76
2021/08/05 08:44:56;;;;;;;;;;;;;;;27.25;37.39;100735.97;4952979;28;98930;-76
2021/08/05 08:47:23;;;;;;;;;;;;;;;27.23;37.70;100729.88;4952471;28;100164;-76
2021/08/05 08:49:50;;;;;;;;;;;;;;;26.48;38.65;100734.09;4954961;28;98535;-76
2021/08/05 08:52:18;;;;;;;;;;;;;;;27.44;37.00;100720.47;4955757;28;97257;-76
2021/08/05 08:54:50;;;;;;;;;;;;;;;27.66;36.32;100720.75;4955322;28;97830;-76
2021/08/05 08:57:20;;;;;;;;;;;;;;;27.56;36.46;100724.63;4967492;28;99391;-78
2021/08/05 08:59:50;;;;;;;;;;;;;;;27.60;35.95;100715.13;4956685;28;97850;-77
2021/08/05 09:02:16;;;;;;;;;;;;;;;28.27;34.95;100716.81;4960800;28;97055;-77
2021/08/05 09:04:45;;;;;;;;;;;;;;;28.71;34.35;100716.44;4956323;28;98953;-76
2021/08/05 09:07:11;;;;;;;;;;;;;;;28.43;35.20;100716.78;4954138;28;97611;-76
2021/08/05 09:09:37;;;;;;;;;;;;;;;28.34;34.70;100712.41;4955712;28;97637;-77
2021/08/05 09:12:08;;;;;;;;;;;;;;;27.27;35.87;100714.97;4954506;28;100133;-76
2021/08/05 09:14:41;;;;;;;;;;;;;;;27.98;34.81;100711.81;4956056;28;97370;-75
2021/08/05 09:17:18;;;;;;;;;;;;;;;27.84;35.34;100707.03;4962331;28;99137;-76
2021/08/05 09:19:45;;;;;;;;;;;;;;;28.45;34.41;100703.91;4953527;28;96955;-76
2021/08/05 09:22:11;;;;;;;;;;;;;;;28.61;34.38;100699.47;4955564;28;97684;-77
2021/08/05 09:24:37;;;;;;;;;;;;;;;27.77;35.24;100706.84;4958248;28;97694;-77
2021/08/05 09:27:06;;;;;;;;;;;;;;;28.00;35.24;100709.78;4956815;28;98908;-77
2021/08/05 09:29:43;;;;;;;;;;;;;;;27.71;35.64;100712.09;4956026;28;98609;-77
2021/08/05 09:32:09;;;;;;;;;;;;;;;27.87;35.29;100695.00;4957341;28;96810;-77
2021/08/05 09:34:36;;;;;;;;;;;;;;;27.77;35.23;100695.13;4956300;28;99264;-77
2021/08/05 09:37:04;;;;;;;;;;;;;;;27.52;35.67;100694.22;4956443;28;98798;-76
2021/08/05 09:39:31;;;;;;;;;;;;;;;28.00;34.72;100693.50;4955523;28;97226;-76
2021/08/05 09:41:59;;;;;;;;;;;;;;;28.15;34.56;100699.16;4957758;28;96861;-79
2021/08/05 09:44:27;;;;;;;;;;;;;;;27.64;35.11;100692.91;4956594;28;98251;-77
2021/08/05 09:47:04;;;;;;;;;;;;;;;28.02;34.54;100694.19;4955850;28;98869;-78
2021/08/05 09:49:30;;;;;;;;;;;;;;;28.72;33.11;100694.53;4956846;28;98200;-77
2021/08/05 09:51:57;;;;;;;;;;;;;;;28.65;33.13;100689.94;4957247;28;98080;-76
2021/08/05 09:54:24;;;;;;;;;;;;;;;28.81;32.93;100696.25;4955400;28;98962;-78
2021/08/05 09:56:54;;;;;;;;;;;;;;;29.15;32.57;100685.06;4955508;28;99438;-81
2021/08/05 09:59:20;;;;;;;;;;;;;;;28.94;32.68;100687.53;4956002;28;97112;-77
2021/08/05 10:01:58;;;;;;;;;;;;;;;29.08;32.27;100686.78;4953756;28;98620;-76
2021/08/05 10:04:28;;;;;;;;;;;;;;;29.21;32.39;100680.81;4954086;28;98892;-74
2021/08/05 10:06:59;;;;;;;;;;;;;;;28.71;32.98;100679.22;4954125;28;98719;-74
2021/08/05 10:09:25;;;;;;;;;;;;;;;28.99;31.86;100679.69;4956769;28;97120;-74
2021/08/05 10:11:51;;;;;;;;;;;;;;;29.03;31.81;100674.75;4951397;28;97084;-73
2021/08/05 10:14:21;;;;;;;;;;;;;;;29.66;31.14;100669.22;4952299;28;99257;-74
2021/08/05 10:16:48;;;;;;;;;;;;;;;30.01;31.04;100667.78;4949992;28;98981;-75
2021/08/05 10:19:18;;;;;;;;;;;;;;;30.21;29.71;100666.28;4952755;28;96783;-74
2021/08/05 10:21:44;;;;;;;;;;;;;;;29.28;31.52;100660.88;4954036;28;96926;-74
2021/08/05 10:24:11;;;;;;;;;;;;;;;29.45;31.41;100652.66;4954538;28;98808;-73
2021/08/05 10:26:37;;;;;;;;;;;;;;;29.63;30.45;100659.53;4952621;28;98899;-73
2021/08/05 10:29:04;;;;;;;;;;;;;;;29.28;31.28;100654.56;4949798;28;97852;-73
2021/08/05 10:31:30;;;;;;;;;;;;;;;28.51;32.90;100657.00;4953787;28;96921;-73
2021/08/05 10:33:57;;;;;;;;;;;;;;;28.42;32.84;100658.03;4953322;28;97665;-74
2021/08/05 10:36:24;;;;;;;;;;;;;;;28.35;32.53;100656.19;4953060;28;98993;-74
2021/08/05 10:38:51;;;;;;;;;;;;;;;28.85;31.81;100658.66;4957128;28;97601;-74
2021/08/05 10:41:18;;;;;;;;;;;;;;;28.91;32.20;100658.81;4958385;28;97563;-76
2021/08/05 10:43:44;;;;;;;;;;;;;;;28.71;32.11;100649.31;4954699;28;98958;-74
2021/08/05 10:46:10;;;;;;;;;;;;;;;29.57;31.38;100653.94;4951066;28;99403;-76
2021/08/05 10:48:38;;;;;;;;;;;;;;;29.27;31.47;100648.31;4953060;28;96762;-75
2021/08/05 10:51:05;;;;;;;;;;;;;;;29.65;31.25;100632.97;4952468;28;97230;-76
2021/08/05 10:53:45;;;;;;;;;;;;;;;30.21;30.13;100635.44;4953382;28;98936;-75
2021/08/05 10:56:19;;;;;;;;;;;;;;;29.71;30.49;100629.53;4953792;28;99161;-74
2021/08/05 10:59:00;;;;;;;;;;;;;;;29.57;30.38;100624.84;4954828;28;96878;-74
2021/08/05 11:01:43;;;;;;;;;;;;;;;29.05;31.39;100629.19;4951828;28;97079;-75
2021/08/05 11:04:10;;;;;;;;;;;;;;;29.17;31.09;100615.00;4952779;28;97870;-75
2021/08/05 11:06:36;;;;;;;;;;;;;;;29.14;31.04;100614.53;4951828;28;98836;-74
2021/08/05 11:09:21;;;;;;;;;;;;;;;29.03;31.23;100618.47;4955320;28;97884;-75
2021/08/05 11:11:49;;;;;;;;;;;;;;;29.54;30.69;100611.59;4952642;28;98939;-74
2021/08/05 11:14:33;;;;;;;;;;;;;;;29.40;31.28;100615.09;4953333;28;98909;-76
2021/08/05 11:17:04;;;;;;;;;;;;;;;29.68;30.22;100602.66;4946074;28;99107;-76
2021/08/05 11:19:31;;;;;;;;;;;;;;;30.30;29.84;100596.19;4952777;28;96901;-76
2021/08/05 11:21:57;;;;;;;;;;;;;;;29.70;30.62;100600.59;4953573;28;97232;-75
2021/08/05 11:24:42;;;;;;;;;;;;;;;29.95;30.49;100600.41;4953114;28;97706;-76
2021/08/05 11:27:13;;;;;;;;;;;;;;;29.57;31.36;100599.50;4950560;28;98922;-76
2021/08/05 11:29:39;;;;;;;;;;;;;;;29.99;30.85;100594.44;4954804;28;96845;-75
2021/08/05 11:32:21;;;;;;;;;;;;;;;29.47;30.16;100588.00;4954622;28;96910;-76
2021/08/05 11:34:54;;;;;;;;;;;;;;;29.38;29.19;100591.81;4951080;28;99150;-75
2021/08/05 11:37:20;;;;;;;;;;;;;;;29.13;30.71;100585.63;4953120;28;99033;-76
2021/08/05 11:39:50;;;;;;;;;;;;;;;29.64;30.12;100587.72;4952340;28;97667;-76
2021/08/05 11:42:18;;;;;;;;;;;;;;;29.98;29.15;100575.56;4954521;28;96864;-75
2021/08/05 11:44:46;;;;;;;;;;;;;;;29.78;29.36;100574.31;4954098;28;98906;-75
2021/08/05 11:47:14;;;;;;;;;;;;;;;29.80;29.92;100575.00;4952675;28;98076;-75
2021/08/05 11:49:41;;;;;;;;;;;;;;;30.28;28.61;100577.28;4952916;28;96894;-75
2021/08/05 11:52:07;;;;;;;;;;;;;;;30.43;28.53;100571.88;4948841;28;96877;-75
2021/08/05 11:54:36;;;;;;;;;;;;;;;30.68;27.43;100564.28;4949317;28;118443;-76
2021/08/05 11:57:03;;;;;;;;;;;;;;;30.99;27.46;100559.44;4953425;28;98903;-75
2021/08/05 11:59:35;;;;;;;;;;;;;;;30.94;28.14;100559.16;4953100;28;98780;-76
2021/08/05 12:02:06;;;;;;;;;;;;;;;30.46;28.23;100550.50;4953575;28;97139;-74
2021/08/05 12:04:32;;;;;;;;;;;;;;;29.46;29.09;100553.66;4952656;28;98932;-76
2021/08/05 12:07:21;;;;;;;;;;;;;;;29.67;28.98;100546.47;4952788;28;100155;-75
2021/08/05 12:09:55;;;;;;;;;;;;;;;30.13;28.36;100546.44;4952101;28;98475;-76
2021/08/05 12:12:22;;;;;;;;;;;;;;;30.33;28.65;100546.75;4953440;28;96948;-75
2021/08/05 12:14:51;;;;;;;;;;;;;;;29.60;29.79;100550.97;4952636;28;99146;-76
2021/08/05 12:17:34;;;;;;;;;;;;;;;29.68;29.80;100548.19;4953214;28;99573;-75
2021/08/05 12:20:01;;;;;;;;;;;;;;;30.16;28.92;100540.63;4953705;28;98899;-77
2021/08/05 12:22:31;;;;;;;;;;;;;;;29.80;29.50;100545.03;4951072;28;98507;-74
2021/08/05 12:25:00;;;;;;;;;;;;;;;29.63;30.05;100541.59;4951041;28;98885;-74
2021/08/05 12:27:26;;;;;;;;;;;;;;;29.37;30.42;100546.56;4953702;28;98982;-75
2021/08/05 12:29:58;;;;;;;;;;;;;;;29.30;30.06;100538.22;4952746;28;97641;-75
2021/08/05 12:32:24;;;;;;;;;;;;;;;29.49;29.24;100537.78;4953360;28;98378;-74
2021/08/05 12:34:51;;;;;;;;;;;;;;;30.38;28.15;100528.81;4952198;28;99773;-74
2021/08/05 12:37:17;;;;;;;;;;;;;;;30.33;28.79;100528.50;4953701;28;98730;-75